sensor_id;sensor_type;location;lat;lon;timestamp;pressure;altitude;pressure_sealevel;temperature;humidity
40384;BME280;26097;42.366;23.818;2023-02-02T00:01:19;94085.00;;;3.56;59.09
40384;BME280;26097;42.366;23.818;2023-02-02T00:04:26;94075.66;;;3.54;59.50
40384;BME280;26097;42.366;23.818;2023-02-02T00:07:27;94083.91;;;3.43;60.81
40384;BME280;26097;42.366;23.818;2023-02-02T00:10:28;94072.50;;;3.49;60.67
40384;BME280;26097;42.366;23.818;2023-02-02T00:13:28;94081.56;;;3.38;61.56
40384;BME280;26097;42.366;23.818;2023-02-02T00:19:29;94078.72;;;3.25;63.40
40384;BME280;26097;42.366;23.818;2023-02-02T00:22:30;94074.63;;;3.21;62.77
40384;BME280;26097;42.366;23.818;2023-02-02T00:25:31;94075.75;;;3.16;63.63
40384;BME280;26097;42.366;23.818;2023-02-02T00:28:31;94071.31;;;3.19;63.26
40384;BME280;26097;42.366;23.818;2023-02-02T00:31:33;94074.63;;;3.21;63.71
40384;BME280;26097;42.366;23.818;2023-02-02T00:34:33;94068.63;;;3.21;62.78
40384;BME280;26097;42.366;23.818;2023-02-02T00:37:33;94068.63;;;3.21;63.30
40384;BME280;26097;42.366;23.818;2023-02-02T00:40:34;94054.59;;;3.09;65.73
40384;BME280;26097;42.366;23.818;2023-02-02T00:43:34;94058.09;;;3.08;64.21
40384;BME280;26097;42.366;23.818;2023-02-02T00:46:38;94056.03;;;2.97;65.26
40384;BME280;26097;42.366;23.818;2023-02-02T00:49:39;94067.72;;;2.85;66.15
40384;BME280;26097;42.366;23.818;2023-02-02T00:52:39;94064.19;;;2.88;65.69
40384;BME280;26097;42.366;23.818;2023-02-02T00:55:40;94070.34;;;2.83;65.43
40384;BME280;26097;42.366;23.818;2023-02-02T00:58:40;94071.34;;;2.81;65.53
40384;BME280;26097;42.366;23.818;2023-02-02T01:01:40;94057.16;;;2.72;66.35
40384;BME280;26097;42.366;23.818;2023-02-02T01:04:41;94060.09;;;2.64;67.02
40384;BME280;26097;42.366;23.818;2023-02-02T01:07:41;94063.56;;;2.63;66.77
40384;BME280;26097;42.366;23.818;2023-02-02T01:10:42;94072.00;;;2.67;66.56
40384;BME280;26097;42.366;23.818;2023-02-02T01:13:43;94075.66;;;2.61;67.11
40384;BME280;26097;42.366;23.818;2023-02-02T01:16:43;94073.16;;;2.60;68.03
40384;BME280;26097;42.366;23.818;2023-02-02T01:19:43;94075.81;;;2.58;66.83
40384;BME280;26097;42.366;23.818;2023-02-02T01:22:46;94082.47;;;2.62;66.96
40384;BME280;26097;42.366;23.818;2023-02-02T01:25:53;94090.91;;;2.66;67.43
40384;BME280;26097;42.366;23.818;2023-02-02T01:28:53;94109.81;;;2.65;68.05
40384;BME280;26097;42.366;23.818;2023-02-02T01:31:53;94094.16;;;2.69;68.14
40384;BME280;26097;42.366;23.818;2023-02-02T01:34:54;94090.00;;;2.67;67.96
40384;BME280;26097;42.366;23.818;2023-02-02T01:37:55;94088.03;;;2.72;68.02
40384;BME280;26097;42.366;23.818;2023-02-02T01:40:56;94091.03;;;2.63;68.96
40384;BME280;26097;42.366;23.818;2023-02-02T01:44:05;94098.22;;;2.56;69.53
40384;BME280;26097;42.366;23.818;2023-02-02T01:47:05;94100.88;;;2.53;69.55
40384;BME280;26097;42.366;23.818;2023-02-02T01:50:08;94095.13;;;2.48;70.01
40384;BME280;26097;42.366;23.818;2023-02-02T01:53:10;94089.63;;;2.36;71.35
40384;BME280;26097;42.366;23.818;2023-02-02T01:56:16;94089.25;;;2.25;72.49
40384;BME280;26097;42.366;23.818;2023-02-02T01:59:18;94077.69;;;2.14;74.35
40384;BME280;26097;42.366;23.818;2023-02-02T02:02:18;94087.41;;;2.08;73.93
40384;BME280;26097;42.366;23.818;2023-02-02T02:05:26;94097.13;;;2.01;74.64
40384;BME280;26097;42.366;23.818;2023-02-02T02:08:52;94081.94;;;1.95;76.26
40384;BME280;26097;42.366;23.818;2023-02-02T02:11:53;94082.84;;;1.73;78.05
40384;BME280;26097;42.366;23.818;2023-02-02T02:14:54;94071.78;;;1.71;77.57
40384;BME280;26097;42.366;23.818;2023-02-02T02:18:43;94076.88;;;1.52;79.71
40384;BME280;26097;42.366;23.818;2023-02-02T02:22:12;94064.94;;;1.51;79.80
40384;BME280;26097;42.366;23.818;2023-02-02T02:29:31;94070.50;;;1.18;84.26
40384;BME280;26097;42.366;23.818;2023-02-02T02:33:04;94065.84;;;1.27;83.09
40384;BME280;26097;42.366;23.818;2023-02-02T02:36:23;94072.91;;;1.22;85.06
40384;BME280;26097;42.366;23.818;2023-02-02T02:39:26;94076.38;;;1.21;83.38
40384;BME280;26097;42.366;23.818;2023-02-02T02:42:35;94078.97;;;1.42;82.32
40384;BME280;26097;42.366;23.818;2023-02-02T02:45:37;94071.66;;;1.53;81.22
40384;BME280;26097;42.366;23.818;2023-02-02T02:48:38;94071.28;;;1.63;80.35
40384;BME280;26097;42.366;23.818;2023-02-02T02:54:50;94073.59;;;1.69;80.02
40384;BME280;26097;42.366;23.818;2023-02-02T03:02:00;94067.19;;;1.79;78.83
40384;BME280;26097;42.366;23.818;2023-02-02T03:05:04;94072.31;;;1.79;79.10
40384;BME280;26097;42.366;23.818;2023-02-02T03:11:36;94083.09;;;1.67;79.48
40384;BME280;26097;42.366;23.818;2023-02-02T03:14:36;94079.50;;;1.71;79.35
40384;BME280;26097;42.366;23.818;2023-02-02T03:17:38;94078.91;;;1.64;79.60
40384;BME280;26097;42.366;23.818;2023-02-02T03:20:39;94088.88;;;1.72;79.44
40384;BME280;26097;42.366;23.818;2023-02-02T03:23:41;94093.38;;;1.67;79.19
40384;BME280;26097;42.366;23.818;2023-02-02T03:26:42;94093.78;;;1.58;80.15
40384;BME280;26097;42.366;23.818;2023-02-02T03:29:42;94090.31;;;1.59;80.32
40384;BME280;26097;42.366;23.818;2023-02-02T03:32:43;94086.84;;;1.60;80.33
40384;BME280;26097;42.366;23.818;2023-02-02T03:35:43;94084.56;;;1.52;80.94
40384;BME280;26097;42.366;23.818;2023-02-02T03:38:44;94079.19;;;1.58;80.65
40384;BME280;26097;42.366;23.818;2023-02-02T03:41:44;94077.13;;;1.66;80.43
40384;BME280;26097;42.366;23.818;2023-02-02T03:44:45;94074.34;;;1.50;81.90
40384;BME280;26097;42.366;23.818;2023-02-02T03:47:45;94077.56;;;1.55;81.35
40384;BME280;26097;42.366;23.818;2023-02-02T03:50:45;94069.09;;;1.74;79.41
40384;BME280;26097;42.366;23.818;2023-02-02T03:53:46;94074.13;;;1.77;78.97
40384;BME280;26097;42.366;23.818;2023-02-02T03:56:46;94073.09;;;1.81;79.10
40384;BME280;26097;42.366;23.818;2023-02-02T03:59:47;94069.22;;;1.71;79.03
40384;BME280;26097;42.366;23.818;2023-02-02T04:02:47;94076.31;;;1.66;79.41
40384;BME280;26097;42.366;23.818;2023-02-02T04:05:48;94082.16;;;1.69;79.13
40384;BME280;26097;42.366;23.818;2023-02-02T04:08:49;94079.63;;;1.68;78.90
40384;BME280;26097;42.366;23.818;2023-02-02T04:11:49;94086.84;;;1.60;79.35
40384;BME280;26097;42.366;23.818;2023-02-02T04:14:50;94083.59;;;1.54;79.83
40384;BME280;26097;42.366;23.818;2023-02-02T04:17:50;94080.97;;;1.56;80.12
40384;BME280;26097;42.366;23.818;2023-02-02T04:20:57;94084.66;;;1.71;77.91
40384;BME280;26097;42.366;23.818;2023-02-02T04:23:58;94080.41;;;1.70;78.57
40384;BME280;26097;42.366;23.818;2023-02-02T04:26:59;94086.25;;;1.74;78.31
40384;BME280;26097;42.366;23.818;2023-02-02T04:30:00;94085.53;;;1.70;78.05
40384;BME280;26097;42.366;23.818;2023-02-02T04:33:00;94086.91;;;1.79;78.12
40384;BME280;26097;42.366;23.818;2023-02-02T04:36:01;94087.84;;;1.76;78.26
40384;BME280;26097;42.366;23.818;2023-02-02T04:39:01;94081.88;;;1.76;78.08
40384;BME280;26097;42.366;23.818;2023-02-02T04:42:02;94086.19;;;1.75;78.36
40384;BME280;26097;42.366;23.818;2023-02-02T04:45:03;94093.00;;;1.76;78.67
40384;BME280;26097;42.366;23.818;2023-02-02T04:48:04;94094.78;;;1.74;77.92
40384;BME280;26097;42.366;23.818;2023-02-02T04:51:07;94086.53;;;1.67;78.45
40384;BME280;26097;42.366;23.818;2023-02-02T04:54:08;94101.16;;;1.65;78.86
40384;BME280;26097;42.366;23.818;2023-02-02T04:57:08;94106.19;;;1.68;78.94
40384;BME280;26097;42.366;23.818;2023-02-02T05:00:10;94105.34;;;1.68;78.53
40384;BME280;26097;42.366;23.818;2023-02-02T05:03:11;94107.38;;;1.60;79.36
40384;BME280;26097;42.366;23.818;2023-02-02T05:06:12;94116.56;;;1.65;79.16
40384;BME280;26097;42.366;23.818;2023-02-02T05:09:12;94105.00;;;1.55;79.91
40384;BME280;26097;42.366;23.818;2023-02-02T05:12:14;94105.00;;;1.55;80.24
40384;BME280;26097;42.366;23.818;2023-02-02T05:15:14;94107.47;;;1.36;81.28
40384;BME280;26097;42.366;23.818;2023-02-02T05:18:15;94107.34;;;1.17;82.46
40384;BME280;26097;42.366;23.818;2023-02-02T05:21:15;94110.19;;;1.10;83.34
40384;BME280;26097;42.366;23.818;2023-02-02T05:24:15;94109.06;;;1.16;82.93
40384;BME280;26097;42.366;23.818;2023-02-02T05:27:16;94115.03;;;0.94;86.70
40384;BME280;26097;42.366;23.818;2023-02-02T05:30:16;94118.25;;;0.77;87.87
40384;BME280;26097;42.366;23.818;2023-02-02T05:33:17;94110.84;;;0.69;88.28
40384;BME280;26097;42.366;23.818;2023-02-02T05:36:18;94109.28;;;0.88;86.90
40384;BME280;26097;42.366;23.818;2023-02-02T05:39:19;94109.06;;;1.16;84.80
40384;BME280;26097;42.366;23.818;2023-02-02T05:42:19;94112.44;;;1.18;84.73
40384;BME280;26097;42.366;23.818;2023-02-02T05:45:20;94098.72;;;1.19;84.13
40384;BME280;26097;42.366;23.818;2023-02-02T05:48:21;94111.72;;;1.14;85.11
40384;BME280;26097;42.366;23.818;2023-02-02T05:51:27;94112.97;;;1.26;84.08
40384;BME280;26097;42.366;23.818;2023-02-02T05:54:28;94113.50;;;1.12;85.30
40384;BME280;26097;42.366;23.818;2023-02-02T05:57:29;94115.28;;;0.88;88.54
40384;BME280;26097;42.366;23.818;2023-02-02T06:00:29;94116.34;;;0.82;88.49
40384;BME280;26097;42.366;23.818;2023-02-02T06:03:30;94110.56;;;0.77;88.89
40384;BME280;26097;42.366;23.818;2023-02-02T06:06:31;94112.94;;;1.28;84.50
40384;BME280;26097;42.366;23.818;2023-02-02T06:09:34;94112.41;;;1.40;83.58
40384;BME280;26097;42.366;23.818;2023-02-02T06:12:34;94117.38;;;1.45;83.35
40384;BME280;26097;42.366;23.818;2023-02-02T06:15:35;94113.44;;;1.59;82.72
40384;BME280;26097;42.366;23.818;2023-02-02T06:18:36;94116.22;;;1.52;83.38
40384;BME280;26097;42.366;23.818;2023-02-02T06:21:37;94119.09;;;1.67;81.78
40384;BME280;26097;42.366;23.818;2023-02-02T06:24:37;94120.25;;;1.80;81.74
40384;BME280;26097;42.366;23.818;2023-02-02T06:27:37;94114.22;;;2.02;80.42
40384;BME280;26097;42.366;23.818;2023-02-02T06:30:38;94110.94;;;1.98;81.00
40384;BME280;26097;42.366;23.818;2023-02-02T06:33:38;94111.91;;;2.17;78.65
40384;BME280;26097;42.366;23.818;2023-02-02T06:36:40;94113.22;;;2.46;77.18
40384;BME280;26097;42.366;23.818;2023-02-02T06:39:40;94115.75;;;2.67;75.80
40384;BME280;26097;42.366;23.818;2023-02-02T06:42:41;94119.22;;;2.85;74.28
40384;BME280;26097;42.366;23.818;2023-02-02T06:45:41;94127.06;;;3.01;74.00
40384;BME280;26097;42.366;23.818;2023-02-02T06:48:42;94120.84;;;3.24;71.48
40384;BME280;26097;42.366;23.818;2023-02-02T06:51:42;94141.72;;;3.37;70.93
40384;BME280;26097;42.366;23.818;2023-02-02T06:54:43;94142.28;;;3.44;69.90
40384;BME280;26097;42.366;23.818;2023-02-02T06:57:43;94138.06;;;3.61;68.57
40384;BME280;26097;42.366;23.818;2023-02-02T07:00:43;94128.97;;;3.71;68.09
40384;BME280;26097;42.366;23.818;2023-02-02T07:03:47;94140.34;;;3.67;67.91
40384;BME280;26097;42.366;23.818;2023-02-02T07:06:48;94132.19;;;3.76;68.21
40384;BME280;26097;42.366;23.818;2023-02-02T07:09:48;94131.72;;;3.85;67.87
40384;BME280;26097;42.366;23.818;2023-02-02T07:12:48;94137.94;;;3.99;66.23
40384;BME280;26097;42.366;23.818;2023-02-02T07:15:49;94144.03;;;3.98;64.38
40384;BME280;26097;42.366;23.818;2023-02-02T07:18:49;94158.13;;;4.08;66.16
40384;BME280;26097;42.366;23.818;2023-02-02T07:21:49;94149.31;;;4.12;65.20
40384;BME280;26097;42.366;23.818;2023-02-02T07:24:50;94149.63;;;4.24;65.65
40384;BME280;26097;42.366;23.818;2023-02-02T07:27:53;94148.09;;;4.20;64.61
40384;BME280;26097;42.366;23.818;2023-02-02T07:30:54;94152.34;;;4.21;66.04
40384;BME280;26097;42.366;23.818;2023-02-02T07:33:54;94163.13;;;4.29;67.27
40384;BME280;26097;42.366;23.818;2023-02-02T07:36:56;94154.41;;;4.32;66.78
40384;BME280;26097;42.366;23.818;2023-02-02T07:39:57;94164.78;;;4.48;64.40
40384;BME280;26097;42.366;23.818;2023-02-02T07:42:57;94157.00;;;4.65;63.29
40384;BME280;26097;42.366;23.818;2023-02-02T07:46:00;94159.16;;;4.57;63.40
40384;BME280;26097;42.366;23.818;2023-02-02T07:49:01;94159.78;;;4.45;63.43
40384;BME280;26097;42.366;23.818;2023-02-02T07:52:02;94152.53;;;4.69;63.47
40384;BME280;26097;42.366;23.818;2023-02-02T07:55:03;94158.00;;;4.96;62.08
40384;BME280;26097;42.366;23.818;2023-02-02T07:58:03;94157.25;;;5.26;61.54
40384;BME280;26097;42.366;23.818;2023-02-02T08:01:05;94163.41;;;4.92;61.60
40384;BME280;26097;42.366;23.818;2023-02-02T08:04:05;94158.50;;;4.69;61.38
40384;BME280;26097;42.366;23.818;2023-02-02T08:07:06;94147.16;;;4.56;63.75
40384;BME280;26097;42.366;23.818;2023-02-02T08:10:07;94138.50;;;4.57;64.20
40384;BME280;26097;42.366;23.818;2023-02-02T08:13:07;94140.34;;;4.55;61.79
40384;BME280;26097;42.366;23.818;2023-02-02T08:16:08;94148.81;;;4.57;63.92
40384;BME280;26097;42.366;23.818;2023-02-02T08:19:09;94144.97;;;4.48;64.25
40384;BME280;26097;42.366;23.818;2023-02-02T08:22:10;94154.16;;;4.36;63.77
40384;BME280;26097;42.366;23.818;2023-02-02T08:25:10;94144.06;;;4.32;63.28
40384;BME280;26097;42.366;23.818;2023-02-02T08:28:11;94147.63;;;4.29;62.64
40384;BME280;26097;42.366;23.818;2023-02-02T08:31:15;94144.06;;;4.32;63.38
40384;BME280;26097;42.366;23.818;2023-02-02T08:34:16;94141.28;;;4.36;62.93
40384;BME280;26097;42.366;23.818;2023-02-02T08:37:16;94128.34;;;4.54;62.25
40384;BME280;26097;42.366;23.818;2023-02-02T08:40:17;94129.13;;;4.88;60.12
40384;BME280;26097;42.366;23.818;2023-02-02T08:43:17;94133.75;;;5.15;59.14
40384;BME280;26097;42.366;23.818;2023-02-02T08:46:19;94109.22;;;5.38;59.20
40384;BME280;26097;42.366;23.818;2023-02-02T08:49:19;94115.13;;;5.56;59.74
40384;BME280;26097;42.366;23.818;2023-02-02T08:52:20;94103.31;;;5.52;59.41
40384;BME280;26097;42.366;23.818;2023-02-02T08:55:20;94101.75;;;5.34;58.42
40384;BME280;26097;42.366;23.818;2023-02-02T08:58:21;94110.22;;;5.20;59.05
40384;BME280;26097;42.366;23.818;2023-02-02T09:01:24;94116.41;;;5.17;58.96
40384;BME280;26097;42.366;23.818;2023-02-02T09:04:24;94107.41;;;5.24;59.47
40384;BME280;26097;42.366;23.818;2023-02-02T09:07:25;94108.44;;;5.22;58.39
40384;BME280;26097;42.366;23.818;2023-02-02T09:10:25;94102.22;;;5.24;59.43
40384;BME280;26097;42.366;23.818;2023-02-02T09:13:26;94102.66;;;5.33;59.53
40384;BME280;26097;42.366;23.818;2023-02-02T09:16:26;94107.09;;;5.31;59.50
40384;BME280;26097;42.366;23.818;2023-02-02T09:19:27;94102.31;;;5.39;58.75
40384;BME280;26097;42.366;23.818;2023-02-02T09:22:27;94109.53;;;5.48;59.79
40384;BME280;26097;42.366;23.818;2023-02-02T09:25:28;94100.63;;;5.54;59.50
40384;BME280;26097;42.366;23.818;2023-02-02T09:28:28;94089.59;;;5.66;58.81
40384;BME280;26097;42.366;23.818;2023-02-02T09:31:31;94087.81;;;5.67;59.73
40384;BME280;26097;42.366;23.818;2023-02-02T09:34:32;94078.72;;;5.76;59.50
40384;BME280;26097;42.366;23.818;2023-02-02T09:37:33;94082.34;;;5.88;60.61
40384;BME280;26097;42.366;23.818;2023-02-02T09:40:34;94075.41;;;6.04;58.29
40384;BME280;26097;42.366;23.818;2023-02-02T09:47:23;94059.53;;;6.10;57.74
40384;BME280;26097;42.366;23.818;2023-02-02T09:50:44;94049.91;;;6.12;57.06
40384;BME280;26097;42.366;23.818;2023-02-02T09:53:50;94047.31;;;6.27;57.75
40384;BME280;26097;42.366;23.818;2023-02-02T09:56:55;94044.56;;;6.30;57.26
40384;BME280;26097;42.366;23.818;2023-02-02T09:59:57;94024.41;;;6.50;56.23
40384;BME280;26097;42.366;23.818;2023-02-02T10:03:05;94035.31;;;6.69;55.95
40384;BME280;26097;42.366;23.818;2023-02-02T10:06:20;94015.66;;;6.80;56.04
40384;BME280;26097;42.366;23.818;2023-02-02T10:09:36;94024.56;;;6.76;55.28
40384;BME280;26097;42.366;23.818;2023-02-02T10:19:14;94012.19;;;6.52;56.17
40384;BME280;26097;42.366;23.818;2023-02-02T10:22:18;94019.03;;;6.38;53.54
40384;BME280;26097;42.366;23.818;2023-02-02T10:25:21;94003.69;;;6.50;54.18
40384;BME280;26097;42.366;23.818;2023-02-02T10:29:01;94002.56;;;6.68;52.76
40384;BME280;26097;42.366;23.818;2023-02-02T10:32:14;93988.00;;;6.80;53.63
40384;BME280;26097;42.366;23.818;2023-02-02T10:35:46;94002.09;;;7.04;54.61
40384;BME280;26097;42.366;23.818;2023-02-02T10:39:02;93999.22;;;6.66;52.90
40384;BME280;26097;42.366;23.818;2023-02-02T10:42:22;93996.59;;;6.81;54.26
40384;BME280;26097;42.366;23.818;2023-02-02T10:45:27;93984.34;;;6.97;54.72
40384;BME280;26097;42.366;23.818;2023-02-02T10:48:32;93968.16;;;7.21;52.38
40384;BME280;26097;42.366;23.818;2023-02-02T10:51:34;93973.47;;;7.33;53.76
40384;BME280;26097;42.366;23.818;2023-02-02T10:54:55;93983.47;;;7.52;53.44
40384;BME280;26097;42.366;23.818;2023-02-02T11:01:12;93975.06;;;7.48;51.92
40384;BME280;26097;42.366;23.818;2023-02-02T11:04:17;93971.56;;;7.75;51.25
40384;BME280;26097;42.366;23.818;2023-02-02T11:07:38;93972.00;;;7.82;50.37
40384;BME280;26097;42.366;23.818;2023-02-02T11:10:38;93957.78;;;7.88;50.25
40384;BME280;26097;42.366;23.818;2023-02-02T11:17:17;93947.66;;;8.48;50.09
40384;BME280;26097;42.366;23.818;2023-02-02T11:20:26;93942.47;;;8.48;49.62
40384;BME280;26097;42.366;23.818;2023-02-02T11:23:30;93938.38;;;8.69;49.65
40384;BME280;26097;42.366;23.818;2023-02-02T11:26:45;93939.22;;;8.57;49.04
40384;BME280;26097;42.366;23.818;2023-02-02T11:30:09;93933.22;;;8.56;47.50
40384;BME280;26097;42.366;23.818;2023-02-02T11:36:26;93934.53;;;8.49;46.93
40384;BME280;26097;42.366;23.818;2023-02-02T11:39:27;93932.34;;;8.93;47.33
40384;BME280;26097;42.366;23.818;2023-02-02T11:42:27;93924.94;;;8.76;45.88
40384;BME280;26097;42.366;23.818;2023-02-02T11:45:40;93921.63;;;8.74;46.98
40384;BME280;26097;42.366;23.818;2023-02-02T11:48:58;93921.53;;;8.62;46.42
40384;BME280;26097;42.366;23.818;2023-02-02T11:52:02;93924.25;;;8.61;46.50
40384;BME280;26097;42.366;23.818;2023-02-02T11:55:09;93913.75;;;8.49;46.46
40384;BME280;26097;42.366;23.818;2023-02-02T12:01:35;93907.22;;;7.80;46.23
40384;BME280;26097;42.366;23.818;2023-02-02T12:04:39;93902.97;;;7.79;47.64
40384;BME280;26097;42.366;23.818;2023-02-02T12:07:43;93907.44;;;7.64;48.40
40384;BME280;26097;42.366;23.818;2023-02-02T12:10:51;93898.28;;;7.71;48.75
40384;BME280;26097;42.366;23.818;2023-02-02T12:17:45;93869.22;;;7.79;47.69
40384;BME280;26097;42.366;23.818;2023-02-02T12:21:00;93883.84;;;8.06;48.09
40384;BME280;26097;42.366;23.818;2023-02-02T12:24:11;93877.09;;;8.04;47.20
40384;BME280;26097;42.366;23.818;2023-02-02T12:30:47;93851.94;;;8.79;46.53
40384;BME280;26097;42.366;23.818;2023-02-02T12:50:54;93825.81;;;9.05;44.79
40384;BME280;26097;42.366;23.818;2023-02-02T12:54:40;93843.50;;;8.99;42.12
40384;BME280;26097;42.366;23.818;2023-02-02T12:58:02;93824.22;;;8.91;43.81
40384;BME280;26097;42.366;23.818;2023-02-02T13:10:41;93860.28;;;8.09;45.23
40384;BME280;26097;42.366;23.818;2023-02-02T13:13:43;93836.00;;;7.84;45.57
40384;BME280;26097;42.366;23.818;2023-02-02T13:16:46;93839.03;;;7.78;46.04
40384;BME280;26097;42.366;23.818;2023-02-02T13:19:51;93849.94;;;7.57;46.97
40384;BME280;26097;42.366;23.818;2023-02-02T13:22:55;93861.84;;;7.21;49.10
40384;BME280;26097;42.366;23.818;2023-02-02T13:26:05;93850.22;;;6.88;51.77
40384;BME280;26097;42.366;23.818;2023-02-02T13:29:17;93872.50;;;6.63;54.18
40384;BME280;26097;42.366;23.818;2023-02-02T13:32:33;93849.19;;;6.63;54.38
40384;BME280;26097;42.366;23.818;2023-02-02T13:35:45;93861.69;;;6.84;54.45
40384;BME280;26097;42.366;23.818;2023-02-02T13:38:49;93841.41;;;7.04;55.49
40384;BME280;26097;42.366;23.818;2023-02-02T13:41:51;93848.94;;;7.47;53.19
40384;BME280;26097;42.366;23.818;2023-02-02T13:45:00;93850.72;;;7.97;51.60
40384;BME280;26097;42.366;23.818;2023-02-02T13:51:52;93850.72;;;7.97;50.56
40384;BME280;26097;42.366;23.818;2023-02-02T13:55:19;93853.47;;;7.69;50.79
40384;BME280;26097;42.366;23.818;2023-02-02T14:01:43;93849.94;;;7.45;51.31
40384;BME280;26097;42.366;23.818;2023-02-02T14:04:52;93852.63;;;7.43;52.04
40384;BME280;26097;42.366;23.818;2023-02-02T14:08:04;93850.56;;;7.22;52.59
40384;BME280;26097;42.366;23.818;2023-02-02T14:11:06;93847.41;;;6.91;52.29
40384;BME280;26097;42.366;23.818;2023-02-02T14:14:16;93849.75;;;6.68;54.52
40384;BME280;26097;42.366;23.818;2023-02-02T14:23:53;93854.69;;;6.17;58.80
40384;BME280;26097;42.366;23.818;2023-02-02T14:26:59;93863.88;;;6.08;59.15
40384;BME280;26097;42.366;23.818;2023-02-02T14:30:13;93862.22;;;6.07;59.21
40384;BME280;26097;42.366;23.818;2023-02-02T14:36:19;93857.13;;;6.05;61.40
40384;BME280;26097;42.366;23.818;2023-02-02T14:39:22;93857.22;;;5.89;62.02
40384;BME280;26097;42.366;23.818;2023-02-02T14:45:45;93868.31;;;5.62;62.69
40384;BME280;26097;42.366;23.818;2023-02-02T14:52:15;93886.06;;;5.23;68.58
40384;BME280;26097;42.366;23.818;2023-02-02T14:55:20;93883.44;;;4.94;72.05
40384;BME280;26097;42.366;23.818;2023-02-02T15:02:15;93890.56;;;4.58;78.84
40384;BME280;26097;42.366;23.818;2023-02-02T15:08:29;93896.03;;;4.22;85.53
40384;BME280;26097;42.366;23.818;2023-02-02T15:15:22;93882.63;;;3.99;90.30
40384;BME280;26097;42.366;23.818;2023-02-02T15:18:28;93904.34;;;3.95;90.14
40384;BME280;26097;42.366;23.818;2023-02-02T15:21:30;93913.47;;;3.84;91.73
40384;BME280;26097;42.366;23.818;2023-02-02T15:24:34;93909.28;;;3.82;92.14
40384;BME280;26097;42.366;23.818;2023-02-02T15:27:36;93917.28;;;3.77;93.16
40384;BME280;26097;42.366;23.818;2023-02-02T15:30:41;93914.88;;;3.74;93.40
40384;BME280;26097;42.366;23.818;2023-02-02T15:33:44;93916.81;;;3.69;93.43
40384;BME280;26097;42.366;23.818;2023-02-02T15:36:48;93931.22;;;3.73;95.70
40384;BME280;26097;42.366;23.818;2023-02-02T15:39:52;93944.88;;;3.75;93.47
40384;BME280;26097;42.366;23.818;2023-02-02T15:42:59;93954.28;;;3.76;93.28
40384;BME280;26097;42.366;23.818;2023-02-02T15:46:04;93999.16;;;3.72;98.47
40384;BME280;26097;42.366;23.818;2023-02-02T15:52:22;94049.56;;;2.31;100.00
40384;BME280;26097;42.366;23.818;2023-02-02T15:55:34;94057.53;;;1.64;100.00
40384;BME280;26097;42.366;23.818;2023-02-02T15:58:37;94056.09;;;1.56;100.00
40384;BME280;26097;42.366;23.818;2023-02-02T16:01:46;94069.97;;;1.52;100.00
40384;BME280;26097;42.366;23.818;2023-02-02T16:04:48;94096.53;;;1.53;100.00
40384;BME280;26097;42.366;23.818;2023-02-02T16:07:48;94106.69;;;1.34;100.00
40384;BME280;26097;42.366;23.818;2023-02-02T16:10:49;94087.94;;;1.32;100.00
40384;BME280;26097;42.366;23.818;2023-02-02T16:14:03;94103.66;;;1.24;100.00
40384;BME280;26097;42.366;23.818;2023-02-02T16:17:12;94080.44;;;1.05;100.00
40384;BME280;26097;42.366;23.818;2023-02-02T16:20:14;94087.50;;;0.99;100.00
40384;BME280;26097;42.366;23.818;2023-02-02T16:23:22;94099.44;;;1.01;100.00
40384;BME280;26097;42.366;23.818;2023-02-02T16:26:28;94072.91;;;1.00;100.00
40384;BME280;26097;42.366;23.818;2023-02-02T16:29:30;94091.06;;;1.18;100.00
40384;BME280;26097;42.366;23.818;2023-02-02T16:32:32;94085.19;;;1.14;100.00
40384;BME280;26097;42.366;23.818;2023-02-02T16:38:35;94092.78;;;1.17;100.00
40384;BME280;26097;42.366;23.818;2023-02-02T16:41:36;94097.91;;;1.17;100.00
40384;BME280;26097;42.366;23.818;2023-02-02T16:44:39;94094.47;;;1.18;100.00
40384;BME280;26097;42.366;23.818;2023-02-02T16:47:41;94100.09;;;1.28;100.00
40384;BME280;26097;42.366;23.818;2023-02-02T16:50:42;94131.47;;;1.35;100.00
40384;BME280;26097;42.366;23.818;2023-02-02T16:53:45;94113.25;;;1.41;100.00
40384;BME280;26097;42.366;23.818;2023-02-02T16:56:58;94117.72;;;1.36;100.00
40384;BME280;26097;42.366;23.818;2023-02-02T17:00:04;94120.41;;;1.33;100.00
40384;BME280;26097;42.366;23.818;2023-02-02T17:03:07;94115.16;;;1.36;100.00
40384;BME280;26097;42.366;23.818;2023-02-02T17:06:09;94132.50;;;1.31;100.00
40384;BME280;26097;42.366;23.818;2023-02-02T17:09:33;94121.19;;;1.35;100.00
40384;BME280;26097;42.366;23.818;2023-02-02T17:12:35;94125.81;;;1.26;100.00
40384;BME280;26097;42.366;23.818;2023-02-02T17:15:35;94135.31;;;1.24;100.00
40384;BME280;26097;42.366;23.818;2023-02-02T17:18:36;94119.16;;;1.21;100.00
40384;BME280;26097;42.366;23.818;2023-02-02T17:21:36;94135.94;;;1.07;100.00
40384;BME280;26097;42.366;23.818;2023-02-02T17:24:36;94135.34;;;1.01;100.00
40384;BME280;26097;42.366;23.818;2023-02-02T17:27:37;94165.19;;;1.03;100.00
40384;BME280;26097;42.366;23.818;2023-02-02T17:30:42;94155.28;;;1.16;100.00
40384;BME280;26097;42.366;23.818;2023-02-02T17:33:42;94170.34;;;1.25;100.00
40384;BME280;26097;42.366;23.818;2023-02-02T17:36:43;94154.50;;;1.38;100.00
40384;BME280;26097;42.366;23.818;2023-02-02T17:39:43;94163.88;;;1.39;100.00
40384;BME280;26097;42.366;23.818;2023-02-02T17:42:46;94184.34;;;1.40;100.00
40384;BME280;26097;42.366;23.818;2023-02-02T17:45:46;94186.38;;;1.54;100.00
40384;BME280;26097;42.366;23.818;2023-02-02T17:48:47;94176.81;;;1.58;100.00
40384;BME280;26097;42.366;23.818;2023-02-02T17:51:47;94164.72;;;1.60;100.00
40384;BME280;26097;42.366;23.818;2023-02-02T17:54:49;94169.88;;;1.60;100.00
40384;BME280;26097;42.366;23.818;2023-02-02T17:57:51;94152.19;;;1.52;100.00
40384;BME280;26097;42.366;23.818;2023-02-02T18:00:52;94148.97;;;1.47;100.00
40384;BME280;26097;42.366;23.818;2023-02-02T18:03:55;94152.75;;;1.38;100.00
40384;BME280;26097;42.366;23.818;2023-02-02T18:06:55;94170.19;;;1.30;100.00